Portada
METAR-TAF:

METAR-TAF

Aeropuertos :

Gibraltar, Gibraltar

Aeropuerto de Gibraltar

latitud: 36-09N, longitud: 005-21W, altitud: 5 m

Observación

El informe se hizo hace 24 minutos, a las 01:50 UTC
Viento 11 kt del oeste
Temperatura 17°C
Humedad 77%
Presión 1010 hPa
Visibilidad 10 km o más

METAR: LXGB 260150Z AUTO 28011KT 9999 // BKN190/// 17/13 Q1010

Hora: 04:14 (02:14 UTC)

Pronóstico

El informe se hizo hace 9 horas y 53 minutos, a las 16:21 UTC
Pronóstico válido del 25 a las 18 UTC al 25 a las 22 UTC
Viento 13 kt del oeste
Visibilidad 10 km o más
Escasas nubes a una altura de 3500 ft

TAF: LXGB 251621Z 2518/2522 28013KT 9999 FEW035

Observaciones y pronósticos meteorológicos de más de 4000 aeropuertos (mensajes METAR y TAF).

Los puntos amarillos y rojos representan las estaciones disponibles.

Ponga el ratón en el punto deseado para ver el nombre de la estación.

Haga clic para ver las observaciones y los pronósticos meteorológicos.

Para cambiar el mapa : haga clic en los botones verdes con una cruz de color negro para hacer un zoom, en el botón verde con un guión para alejar o en las flechas verdes para mapas adyacentes.


METAR-TAF: